sensor_id;sensor_type;location;lat;lon;timestamp;temperature;humidity
19332;DHT22;9800;52.056;4.466;2022-07-29T04:52:45;23.40;53.00
19332;DHT22;9800;52.056;4.466;2022-07-29T05:45:21;14.90;74.70
19332;DHT22;9800;52.056;4.466;2022-07-29T05:47:50;17.00;37.60
19332;DHT22;9800;52.056;4.466;2022-07-29T05:50:19;17.20;34.30
19332;DHT22;9800;52.056;4.466;2022-07-29T05:52:48;17.40;30.50
19332;DHT22;9800;52.056;4.466;2022-07-29T05:55:18;17.50;29.10
19332;DHT22;9800;52.056;4.466;2022-07-29T05:57:46;17.70;26.20
19332;DHT22;9800;52.056;4.466;2022-07-29T06:00:16;17.80;25.70
19332;DHT22;9800;52.056;4.466;2022-07-29T06:02:48;18.00;23.30
19332;DHT22;9800;52.056;4.466;2022-07-29T06:05:17;18.30;22.10
19332;DHT22;9800;52.056;4.466;2022-07-29T06:07:46;18.30;19.80
19332;DHT22;9800;52.056;4.466;2022-07-29T06:10:15;18.70;19.40
19332;DHT22;9800;52.056;4.466;2022-07-29T06:12:44;18.80;17.00
19332;DHT22;9800;52.056;4.466;2022-07-29T06:15:13;19.20;16.70
19332;DHT22;9800;52.056;4.466;2022-07-29T06:17:42;19.40;14.60
19332;DHT22;9800;52.056;4.466;2022-07-29T06:20:14;19.70;14.20
19332;DHT22;9800;52.056;4.466;2022-07-29T06:22:43;20.10;11.80
19332;DHT22;9800;52.056;4.466;2022-07-29T06:25:11;20.40;10.40
19332;DHT22;9800;52.056;4.466;2022-07-29T06:27:41;20.60;8.90
19332;DHT22;9800;52.056;4.466;2022-07-29T06:30:12;20.40;8.20
19332;DHT22;9800;52.056;4.466;2022-07-29T06:32:41;20.60;8.10
19332;DHT22;9800;52.056;4.466;2022-07-29T06:35:16;20.60;6.70
19332;DHT22;9800;52.056;4.466;2022-07-29T06:37:44;20.80;6.10
19332;DHT22;9800;52.056;4.466;2022-07-29T06:40:17;20.90;6.20
19332;DHT22;9800;52.056;4.466;2022-07-29T06:42:58;21.10;5.50
19332;DHT22;9800;52.056;4.466;2022-07-29T06:45:27;20.90;5.50
19332;DHT22;9800;52.056;4.466;2022-07-29T06:47:59;21.20;5.00
19332;DHT22;9800;52.056;4.466;2022-07-29T06:50:35;21.40;5.10
19332;DHT22;9800;52.056;4.466;2022-07-29T06:53:05;21.20;3.60
19332;DHT22;9800;52.056;4.466;2022-07-29T06:55:34;21.40;4.10
19332;DHT22;9800;52.056;4.466;2022-07-29T06:58:03;21.30;3.40
19332;DHT22;9800;52.056;4.466;2022-07-29T07:00:34;21.40;2.80
19332;DHT22;9800;52.056;4.466;2022-07-29T07:03:10;21.60;2.80
19332;DHT22;9800;52.056;4.466;2022-07-29T07:05:44;21.60;2.30
19332;DHT22;9800;52.056;4.466;2022-07-29T07:08:19;22.00;1.50
19332;DHT22;9800;52.056;4.466;2022-07-29T07:10:52;22.30;1.00
19332;DHT22;9800;52.056;4.466;2022-07-29T07:13:23;22.20;1.00
19332;DHT22;9800;52.056;4.466;2022-07-29T07:15:54;22.50;1.00
19332;DHT22;9800;52.056;4.466;2022-07-29T07:18:23;22.20;1.00
19332;DHT22;9800;52.056;4.466;2022-07-29T07:20:55;21.90;1.00
19332;DHT22;9800;52.056;4.466;2022-07-29T07:23:24;21.90;1.00
19332;DHT22;9800;52.056;4.466;2022-07-29T07:25:53;21.50;1.80
19332;DHT22;9800;52.056;4.466;2022-07-29T07:28:22;21.70;1.30
19332;DHT22;9800;52.056;4.466;2022-07-29T07:30:51;21.30;2.00
19332;DHT22;9800;52.056;4.466;2022-07-29T07:33:20;21.00;3.10
19332;DHT22;9800;52.056;4.466;2022-07-29T07:35:50;20.80;4.00
19332;DHT22;9800;52.056;4.466;2022-07-29T07:38:22;20.30;6.40
19332;DHT22;9800;52.056;4.466;2022-07-29T07:40:52;20.30;8.30
19332;DHT22;9800;52.056;4.466;2022-07-29T07:43:21;20.50;7.60
19332;DHT22;9800;52.056;4.466;2022-07-29T07:45:50;20.20;9.10
19332;DHT22;9800;52.056;4.466;2022-07-29T07:48:19;20.80;7.90
19332;DHT22;9800;52.056;4.466;2022-07-29T07:50:48;21.10;7.20
19332;DHT22;9800;52.056;4.466;2022-07-29T07:53:17;21.80;5.30
19332;DHT22;9800;52.056;4.466;2022-07-29T07:55:49;22.10;4.40
19332;DHT22;9800;52.056;4.466;2022-07-29T07:58:18;22.30;3.50
19332;DHT22;9800;52.056;4.466;2022-07-29T08:00:49;22.60;2.40
19332;DHT22;9800;52.056;4.466;2022-07-29T08:03:18;22.80;2.60
19332;DHT22;9800;52.056;4.466;2022-07-29T08:05:47;23.20;1.30
19332;DHT22;9800;52.056;4.466;2022-07-29T08:08:16;23.60;1.00
19332;DHT22;9800;52.056;4.466;2022-07-29T08:10:45;24.40;1.00
19332;DHT22;9800;52.056;4.466;2022-07-29T08:13:25;24.60;1.00
19332;DHT22;9800;52.056;4.466;2022-07-29T08:15:56;25.20;1.00
19332;DHT22;9800;52.056;4.466;2022-07-29T08:18:38;25.00;1.00
19332;DHT22;9800;52.056;4.466;2022-07-29T08:21:07;25.10;1.00
19332;DHT22;9800;52.056;4.466;2022-07-29T08:23:35;25.10;1.00
19332;DHT22;9800;52.056;4.466;2022-07-29T08:26:13;25.00;1.00
19332;DHT22;9800;52.056;4.466;2022-07-29T08:28:46;25.00;1.00
19332;DHT22;9800;52.056;4.466;2022-07-29T08:31:19;25.50;1.00
19332;DHT22;9800;52.056;4.466;2022-07-29T08:33:47;25.70;1.00
19332;DHT22;9800;52.056;4.466;2022-07-29T08:36:16;26.30;1.00
19332;DHT22;9800;52.056;4.466;2022-07-29T08:38:46;26.50;1.00
19332;DHT22;9800;52.056;4.466;2022-07-29T08:41:15;27.30;1.00
19332;DHT22;9800;52.056;4.466;2022-07-29T08:43:48;27.20;1.00
19332;DHT22;9800;52.056;4.466;2022-07-29T08:46:17;27.10;1.00
19332;DHT22;9800;52.056;4.466;2022-07-29T08:48:47;26.50;1.00
19332;DHT22;9800;52.056;4.466;2022-07-29T08:51:17;27.00;1.00
19332;DHT22;9800;52.056;4.466;2022-07-29T08:53:47;27.60;1.00
19332;DHT22;9800;52.056;4.466;2022-07-29T08:56:18;29.70;1.00
19332;DHT22;9800;52.056;4.466;2022-07-29T08:58:49;32.10;1.00
19332;DHT22;9800;52.056;4.466;2022-07-29T09:01:22;33.50;1.00
19332;DHT22;9800;52.056;4.466;2022-07-29T09:03:55;34.70;1.00
19332;DHT22;9800;52.056;4.466;2022-07-29T09:06:25;33.50;1.00
19332;DHT22;9800;52.056;4.466;2022-07-29T09:08:59;34.20;1.00
19332;DHT22;9800;52.056;4.466;2022-07-29T09:11:32;32.70;1.00
19332;DHT22;9800;52.056;4.466;2022-07-29T09:14:04;31.90;1.00
19332;DHT22;9800;52.056;4.466;2022-07-29T09:16:47;32.00;1.00
19332;DHT22;9800;52.056;4.466;2022-07-29T09:19:21;31.50;1.00
19332;DHT22;9800;52.056;4.466;2022-07-29T09:21:53;31.50;1.00
19332;DHT22;9800;52.056;4.466;2022-07-29T09:24:38;33.40;1.00
19332;DHT22;9800;52.056;4.466;2022-07-29T09:27:21;35.30;1.00
19332;DHT22;9800;52.056;4.466;2022-07-29T09:30:03;37.70;1.00
19332;DHT22;9800;52.056;4.466;2022-07-29T09:32:54;39.80;1.00
19332;DHT22;9800;52.056;4.466;2022-07-29T09:35:25;39.00;1.00
19332;DHT22;9800;52.056;4.466;2022-07-29T09:37:54;40.40;1.00
19332;DHT22;9800;52.056;4.466;2022-07-29T09:40:25;41.30;1.00
19332;DHT22;9800;52.056;4.466;2022-07-29T09:42:55;41.80;1.00
19332;DHT22;9800;52.056;4.466;2022-07-29T09:45:31;41.70;1.00
19332;DHT22;9800;52.056;4.466;2022-07-29T09:48:13;39.90;1.00
19332;DHT22;9800;52.056;4.466;2022-07-29T09:50:44;41.70;1.00
19332;DHT22;9800;52.056;4.466;2022-07-29T09:53:30;42.20;1.00
19332;DHT22;9800;52.056;4.466;2022-07-29T09:55:59;42.40;1.00
19332;DHT22;9800;52.056;4.466;2022-07-29T09:58:29;41.30;1.00
19332;DHT22;9800;52.056;4.466;2022-07-29T10:01:02;39.90;1.00
19332;DHT22;9800;52.056;4.466;2022-07-29T10:03:31;41.00;1.00
19332;DHT22;9800;52.056;4.466;2022-07-29T10:06:07;41.30;1.00
19332;DHT22;9800;52.056;4.466;2022-07-29T10:08:37;42.60;1.00
19332;DHT22;9800;52.056;4.466;2022-07-29T10:11:10;42.70;1.00
19332;DHT22;9800;52.056;4.466;2022-07-29T10:13:43;42.40;1.00
19332;DHT22;9800;52.056;4.466;2022-07-29T10:16:15;41.90;1.00
19332;DHT22;9800;52.056;4.466;2022-07-29T10:18:47;42.20;1.00
19332;DHT22;9800;52.056;4.466;2022-07-29T10:21:16;41.20;1.00
19332;DHT22;9800;52.056;4.466;2022-07-29T10:23:45;41.30;1.00
19332;DHT22;9800;52.056;4.466;2022-07-29T10:26:15;41.20;1.00
19332;DHT22;9800;52.056;4.466;2022-07-29T10:28:44;42.20;1.00
19332;DHT22;9800;52.056;4.466;2022-07-29T10:31:22;43.60;1.00
19332;DHT22;9800;52.056;4.466;2022-07-29T10:34:02;42.90;1.00
19332;DHT22;9800;52.056;4.466;2022-07-29T10:36:43;41.50;1.00
19332;DHT22;9800;52.056;4.466;2022-07-29T10:39:25;42.60;1.00
19332;DHT22;9800;52.056;4.466;2022-07-29T10:42:06;40.80;1.00
19332;DHT22;9800;52.056;4.466;2022-07-29T10:44:40;42.20;1.00
19332;DHT22;9800;52.056;4.466;2022-07-29T10:47:22;43.10;1.00
19332;DHT22;9800;52.056;4.466;2022-07-29T10:49:58;41.70;1.00
19332;DHT22;9800;52.056;4.466;2022-07-29T10:55:37;42.50;1.00
19332;DHT22;9800;52.056;4.466;2022-07-29T10:58:15;42.90;1.00
19332;DHT22;9800;52.056;4.466;2022-07-29T11:00:45;43.30;1.00
19332;DHT22;9800;52.056;4.466;2022-07-29T11:03:47;43.60;1.00
19332;DHT22;9800;52.056;4.466;2022-07-29T11:06:20;44.30;1.00
19332;DHT22;9800;52.056;4.466;2022-07-29T11:09:15;45.40;1.00
19332;DHT22;9800;52.056;4.466;2022-07-29T11:11:46;45.70;1.00
19332;DHT22;9800;52.056;4.466;2022-07-29T11:14:15;45.30;1.00
19332;DHT22;9800;52.056;4.466;2022-07-29T11:17:04;43.80;1.00
19332;DHT22;9800;52.056;4.466;2022-07-29T11:19:36;42.00;1.00
19332;DHT22;9800;52.056;4.466;2022-07-29T11:22:08;42.70;1.00
19332;DHT22;9800;52.056;4.466;2022-07-29T11:24:38;42.40;1.00
19332;DHT22;9800;52.056;4.466;2022-07-29T11:27:14;44.20;1.00
19332;DHT22;9800;52.056;4.466;2022-07-29T11:29:53;43.90;1.00
19332;DHT22;9800;52.056;4.466;2022-07-29T11:32:25;44.80;1.00
19332;DHT22;9800;52.056;4.466;2022-07-29T11:35:18;43.70;1.00
19332;DHT22;9800;52.056;4.466;2022-07-29T11:41:21;46.10;1.00
19332;DHT22;9800;52.056;4.466;2022-07-29T11:43:52;45.80;1.00
19332;DHT22;9800;52.056;4.466;2022-07-29T11:46:46;44.60;1.00
19332;DHT22;9800;52.056;4.466;2022-07-29T11:49:19;42.20;1.00
19332;DHT22;9800;52.056;4.466;2022-07-29T11:51:57;41.00;1.00
19332;DHT22;9800;52.056;4.466;2022-07-29T11:54:31;42.10;1.00
19332;DHT22;9800;52.056;4.466;2022-07-29T11:57:00;42.00;1.00
19332;DHT22;9800;52.056;4.466;2022-07-29T11:59:29;43.70;1.00
19332;DHT22;9800;52.056;4.466;2022-07-29T12:02:03;42.00;1.00
19332;DHT22;9800;52.056;4.466;2022-07-29T12:04:32;42.40;1.00
19332;DHT22;9800;52.056;4.466;2022-07-29T12:07:04;41.00;1.00
19332;DHT22;9800;52.056;4.466;2022-07-29T12:09:33;39.30;1.00
19332;DHT22;9800;52.056;4.466;2022-07-29T12:12:04;40.60;1.00
19332;DHT22;9800;52.056;4.466;2022-07-29T12:14:33;41.10;1.00
19332;DHT22;9800;52.056;4.466;2022-07-29T12:17:02;43.10;1.00
19332;DHT22;9800;52.056;4.466;2022-07-29T12:19:42;43.90;1.00
19332;DHT22;9800;52.056;4.466;2022-07-29T12:22:24;43.00;1.00
19332;DHT22;9800;52.056;4.466;2022-07-29T12:24:54;43.30;1.00
19332;DHT22;9800;52.056;4.466;2022-07-29T12:27:24;44.20;1.00
19332;DHT22;9800;52.056;4.466;2022-07-29T12:29:56;45.70;1.00
19332;DHT22;9800;52.056;4.466;2022-07-29T12:32:32;45.30;1.00
19332;DHT22;9800;52.056;4.466;2022-07-29T12:35:05;42.90;1.00
19332;DHT22;9800;52.056;4.466;2022-07-29T12:37:39;43.70;1.00
19332;DHT22;9800;52.056;4.466;2022-07-29T12:40:09;43.40;1.00
19332;DHT22;9800;52.056;4.466;2022-07-29T12:42:39;42.90;1.00
19332;DHT22;9800;52.056;4.466;2022-07-29T12:45:08;42.60;1.00
19332;DHT22;9800;52.056;4.466;2022-07-29T12:47:51;42.50;1.00
19332;DHT22;9800;52.056;4.466;2022-07-29T12:50:20;43.60;1.00
19332;DHT22;9800;52.056;4.466;2022-07-29T12:52:52;44.70;1.00
19332;DHT22;9800;52.056;4.466;2022-07-29T12:55:45;46.10;1.00
19332;DHT22;9800;52.056;4.466;2022-07-29T12:58:27;44.10;1.00
19332;DHT22;9800;52.056;4.466;2022-07-29T13:01:08;43.50;1.00
19332;DHT22;9800;52.056;4.466;2022-07-29T13:03:49;41.10;1.00
19332;DHT22;9800;52.056;4.466;2022-07-29T13:06:29;41.50;1.00
19332;DHT22;9800;52.056;4.466;2022-07-29T13:09:09;40.90;1.00
19332;DHT22;9800;52.056;4.466;2022-07-29T13:11:40;40.60;1.00
19332;DHT22;9800;52.056;4.466;2022-07-29T13:14:28;41.20;1.00
19332;DHT22;9800;52.056;4.466;2022-07-29T13:17:03;42.80;1.00
19332;DHT22;9800;52.056;4.466;2022-07-29T13:19:34;40.00;1.00
19332;DHT22;9800;52.056;4.466;2022-07-29T13:22:04;40.70;1.00
19332;DHT22;9800;52.056;4.466;2022-07-29T13:24:45;42.40;1.00
19332;DHT22;9800;52.056;4.466;2022-07-29T13:27:15;40.90;1.00
19332;DHT22;9800;52.056;4.466;2022-07-29T13:29:44;39.50;1.00
19332;DHT22;9800;52.056;4.466;2022-07-29T13:32:14;38.10;1.00
19332;DHT22;9800;52.056;4.466;2022-07-29T13:34:43;39.00;1.00
19332;DHT22;9800;52.056;4.466;2022-07-29T13:37:14;38.50;1.00
19332;DHT22;9800;52.056;4.466;2022-07-29T13:39:46;39.60;1.00
19332;DHT22;9800;52.056;4.466;2022-07-29T13:42:15;38.30;1.00
19332;DHT22;9800;52.056;4.466;2022-07-29T13:44:44;39.80;1.00
19332;DHT22;9800;52.056;4.466;2022-07-29T13:47:14;40.00;1.00
19332;DHT22;9800;52.056;4.466;2022-07-29T13:49:45;39.90;1.00
19332;DHT22;9800;52.056;4.466;2022-07-29T13:52:14;39.20;1.00
19332;DHT22;9800;52.056;4.466;2022-07-29T13:54:47;39.40;1.00
19332;DHT22;9800;52.056;4.466;2022-07-29T13:57:15;38.60;1.00
19332;DHT22;9800;52.056;4.466;2022-07-29T13:59:44;38.10;1.00
19332;DHT22;9800;52.056;4.466;2022-07-29T14:02:13;39.30;1.00
19332;DHT22;9800;52.056;4.466;2022-07-29T14:04:42;38.10;1.00
19332;DHT22;9800;52.056;4.466;2022-07-29T14:07:11;36.90;1.00
19332;DHT22;9800;52.056;4.466;2022-07-29T14:09:40;38.30;1.00
19332;DHT22;9800;52.056;4.466;2022-07-29T14:12:12;39.60;1.00
19332;DHT22;9800;52.056;4.466;2022-07-29T14:14:40;38.80;1.00
19332;DHT22;9800;52.056;4.466;2022-07-29T14:17:10;38.40;1.00
19332;DHT22;9800;52.056;4.466;2022-07-29T14:19:41;36.60;1.00
19332;DHT22;9800;52.056;4.466;2022-07-29T14:22:09;36.80;1.00
19332;DHT22;9800;52.056;4.466;2022-07-29T14:24:39;37.30;1.00
19332;DHT22;9800;52.056;4.466;2022-07-29T14:27:11;38.50;1.00
19332;DHT22;9800;52.056;4.466;2022-07-29T14:29:39;37.90;1.00
19332;DHT22;9800;52.056;4.466;2022-07-29T14:32:09;37.60;1.00
19332;DHT22;9800;52.056;4.466;2022-07-29T14:34:40;35.90;1.00
19332;DHT22;9800;52.056;4.466;2022-07-29T14:37:09;35.80;1.00
19332;DHT22;9800;52.056;4.466;2022-07-29T14:39:38;36.50;1.00
19332;DHT22;9800;52.056;4.466;2022-07-29T14:42:07;35.80;1.00
19332;DHT22;9800;52.056;4.466;2022-07-29T14:44:39;36.40;1.00
19332;DHT22;9800;52.056;4.466;2022-07-29T14:47:10;36.20;1.00
19332;DHT22;9800;52.056;4.466;2022-07-29T14:49:39;36.50;1.00
19332;DHT22;9800;52.056;4.466;2022-07-29T14:52:09;35.30;1.00
19332;DHT22;9800;52.056;4.466;2022-07-29T14:54:38;35.80;1.00
19332;DHT22;9800;52.056;4.466;2022-07-29T14:57:08;37.00;1.00
19332;DHT22;9800;52.056;4.466;2022-07-29T14:59:39;36.20;1.00
19332;DHT22;9800;52.056;4.466;2022-07-29T15:02:08;35.50;1.00
19332;DHT22;9800;52.056;4.466;2022-07-29T15:04:37;35.10;1.00
19332;DHT22;9800;52.056;4.466;2022-07-29T15:07:06;36.20;1.00
19332;DHT22;9800;52.056;4.466;2022-07-29T15:09:35;35.90;1.00
19332;DHT22;9800;52.056;4.466;2022-07-29T15:12:04;36.60;1.00
19332;DHT22;9800;52.056;4.466;2022-07-29T15:14:33;36.30;1.00
19332;DHT22;9800;52.056;4.466;2022-07-29T15:17:05;36.20;1.00
19332;DHT22;9800;52.056;4.466;2022-07-29T15:19:34;36.60;1.00
19332;DHT22;9800;52.056;4.466;2022-07-29T15:22:03;34.90;1.00
19332;DHT22;9800;52.056;4.466;2022-07-29T15:24:33;36.00;1.00
19332;DHT22;9800;52.056;4.466;2022-07-29T15:27:03;35.10;1.00
19332;DHT22;9800;52.056;4.466;2022-07-29T15:29:32;33.80;1.00
19332;DHT22;9800;52.056;4.466;2022-07-29T15:32:05;34.80;1.00
19332;DHT22;9800;52.056;4.466;2022-07-29T15:34:34;35.10;1.00
19332;DHT22;9800;52.056;4.466;2022-07-29T15:37:04;34.40;1.00
19332;DHT22;9800;52.056;4.466;2022-07-29T15:39:33;34.20;1.00
19332;DHT22;9800;52.056;4.466;2022-07-29T15:42:03;33.40;1.00
19332;DHT22;9800;52.056;4.466;2022-07-29T15:44:32;33.10;1.00
19332;DHT22;9800;52.056;4.466;2022-07-29T15:47:04;33.10;1.00
19332;DHT22;9800;52.056;4.466;2022-07-29T15:49:37;32.90;1.00
19332;DHT22;9800;52.056;4.466;2022-07-29T15:52:08;31.90;1.00
19332;DHT22;9800;52.056;4.466;2022-07-29T15:54:38;32.10;1.00
19332;DHT22;9800;52.056;4.466;2022-07-29T15:57:08;32.40;1.00
19332;DHT22;9800;52.056;4.466;2022-07-29T15:59:37;32.10;1.00
19332;DHT22;9800;52.056;4.466;2022-07-29T16:02:11;32.60;1.00
19332;DHT22;9800;52.056;4.466;2022-07-29T16:04:40;32.40;1.00
19332;DHT22;9800;52.056;4.466;2022-07-29T16:07:09;31.90;1.00
19332;DHT22;9800;52.056;4.466;2022-07-29T16:09:38;31.30;1.00
19332;DHT22;9800;52.056;4.466;2022-07-29T16:12:06;31.80;1.00
19332;DHT22;9800;52.056;4.466;2022-07-29T16:14:36;32.20;1.00
19332;DHT22;9800;52.056;4.466;2022-07-29T16:17:10;32.00;1.00
19332;DHT22;9800;52.056;4.466;2022-07-29T16:19:38;31.10;1.00
19332;DHT22;9800;52.056;4.466;2022-07-29T16:22:09;31.40;1.00
19332;DHT22;9800;52.056;4.466;2022-07-29T16:24:38;31.80;1.00
19332;DHT22;9800;52.056;4.466;2022-07-29T16:27:07;30.60;1.00
19332;DHT22;9800;52.056;4.466;2022-07-29T16:29:36;30.90;1.00
19332;DHT22;9800;52.056;4.466;2022-07-29T16:32:05;30.20;1.00
19332;DHT22;9800;52.056;4.466;2022-07-29T16:34:39;30.30;1.00
19332;DHT22;9800;52.056;4.466;2022-07-29T16:37:08;29.70;1.00
19332;DHT22;9800;52.056;4.466;2022-07-29T16:39:39;30.60;1.00
19332;DHT22;9800;52.056;4.466;2022-07-29T16:42:08;30.20;1.00
19332;DHT22;9800;52.056;4.466;2022-07-29T16:44:37;30.50;1.00
19332;DHT22;9800;52.056;4.466;2022-07-29T16:47:08;29.80;1.00
19332;DHT22;9800;52.056;4.466;2022-07-29T16:49:39;29.70;1.00
19332;DHT22;9800;52.056;4.466;2022-07-29T16:52:08;29.50;1.00
19332;DHT22;9800;52.056;4.466;2022-07-29T16:54:37;29.40;1.00
19332;DHT22;9800;52.056;4.466;2022-07-29T16:57:06;28.60;1.00
19332;DHT22;9800;52.056;4.466;2022-07-29T16:59:36;28.90;1.00
19332;DHT22;9800;52.056;4.466;2022-07-29T17:02:05;29.20;1.00
19332;DHT22;9800;52.056;4.466;2022-07-29T17:04:35;28.10;1.00
19332;DHT22;9800;52.056;4.466;2022-07-29T17:07:07;27.50;1.00
19332;DHT22;9800;52.056;4.466;2022-07-29T17:09:36;26.70;1.00
19332;DHT22;9800;52.056;4.466;2022-07-29T17:12:05;26.70;1.00
19332;DHT22;9800;52.056;4.466;2022-07-29T17:14:34;26.80;1.00
19332;DHT22;9800;52.056;4.466;2022-07-29T17:17:03;26.70;1.00
19332;DHT22;9800;52.056;4.466;2022-07-29T17:19:34;26.90;1.00
19332;DHT22;9800;52.056;4.466;2022-07-29T17:22:06;26.20;1.00
19332;DHT22;9800;52.056;4.466;2022-07-29T17:24:37;25.60;1.00
19332;DHT22;9800;52.056;4.466;2022-07-29T17:27:06;24.90;1.00
19332;DHT22;9800;52.056;4.466;2022-07-29T17:29:35;24.40;1.00
19332;DHT22;9800;52.056;4.466;2022-07-29T17:32:07;24.20;1.00
19332;DHT22;9800;52.056;4.466;2022-07-29T17:34:36;23.90;1.00
19332;DHT22;9800;52.056;4.466;2022-07-29T17:37:11;23.40;1.00
19332;DHT22;9800;52.056;4.466;2022-07-29T17:39:41;23.10;1.20
19332;DHT22;9800;52.056;4.466;2022-07-29T17:42:11;22.90;4.80
19332;DHT22;9800;52.056;4.466;2022-07-29T17:44:40;22.60;5.90
19332;DHT22;9800;52.056;4.466;2022-07-29T17:47:09;22.70;6.20
19332;DHT22;9800;52.056;4.466;2022-07-29T17:49:38;22.40;10.00
19332;DHT22;9800;52.056;4.466;2022-07-29T17:52:10;21.90;14.00
19332;DHT22;9800;52.056;4.466;2022-07-29T17:54:39;21.90;16.50
19332;DHT22;9800;52.056;4.466;2022-07-29T17:57:07;21.80;15.90
19332;DHT22;9800;52.056;4.466;2022-07-29T17:59:36;21.30;23.00
19332;DHT22;9800;52.056;4.466;2022-07-29T18:02:05;21.40;26.50
19332;DHT22;9800;52.056;4.466;2022-07-29T18:04:37;21.40;24.60
19332;DHT22;9800;52.056;4.466;2022-07-29T18:07:09;21.20;27.00
19332;DHT22;9800;52.056;4.466;2022-07-29T18:09:38;21.10;28.30
19332;DHT22;9800;52.056;4.466;2022-07-29T18:12:08;21.20;33.20
19332;DHT22;9800;52.056;4.466;2022-07-29T18:14:37;21.00;36.50
19332;DHT22;9800;52.056;4.466;2022-07-29T18:17:06;20.60;44.00
19332;DHT22;9800;52.056;4.466;2022-07-29T18:19:35;20.90;36.90
19332;DHT22;9800;52.056;4.466;2022-07-29T18:22:04;20.70;41.60
19332;DHT22;9800;52.056;4.466;2022-07-29T18:24:39;20.60;44.40
19332;DHT22;9800;52.056;4.466;2022-07-29T18:27:08;20.60;44.10
19332;DHT22;9800;52.056;4.466;2022-07-29T18:29:39;20.60;43.60
19332;DHT22;9800;52.056;4.466;2022-07-29T18:32:28;20.70;43.70
19332;DHT22;9800;52.056;4.466;2022-07-29T18:35:35;20.40;47.50
19332;DHT22;9800;52.056;4.466;2022-07-29T18:38:25;20.40;51.60
19332;DHT22;9800;52.056;4.466;2022-07-29T18:41:19;20.10;54.40
19332;DHT22;9800;52.056;4.466;2022-07-29T18:44:14;19.90;56.60
19332;DHT22;9800;52.056;4.466;2022-07-29T18:46:57;19.70;64.00
19332;DHT22;9800;52.056;4.466;2022-07-29T18:49:48;19.80;65.10
19332;DHT22;9800;52.056;4.466;2022-07-29T18:52:22;19.60;65.50
19332;DHT22;9800;52.056;4.466;2022-07-29T18:55:04;19.60;65.30
19332;DHT22;9800;52.056;4.466;2022-07-29T18:57:56;19.50;67.80
19332;DHT22;9800;52.056;4.466;2022-07-29T19:00:59;19.60;69.10
19332;DHT22;9800;52.056;4.466;2022-07-29T19:07:36;19.30;71.30
19332;DHT22;9800;52.056;4.466;2022-07-29T19:10:11;19.30;75.50
19332;DHT22;9800;52.056;4.466;2022-07-29T19:13:28;19.30;78.00
19332;DHT22;9800;52.056;4.466;2022-07-29T19:16:15;19.10;85.50
19332;DHT22;9800;52.056;4.466;2022-07-29T19:22:32;19.10;86.10
19332;DHT22;9800;52.056;4.466;2022-07-29T19:25:35;18.90;94.30
19332;DHT22;9800;52.056;4.466;2022-07-29T19:28:45;18.80;98.40
19332;DHT22;9800;52.056;4.466;2022-07-29T19:34:36;18.40;99.90
19332;DHT22;9800;52.056;4.466;2022-07-29T19:37:27;18.40;99.90
19332;DHT22;9800;52.056;4.466;2022-07-29T19:40:28;18.30;99.90
19332;DHT22;9800;52.056;4.466;2022-07-29T19:43:00;18.30;99.90
19332;DHT22;9800;52.056;4.466;2022-07-29T19:45:43;18.30;99.90
19332;DHT22;9800;52.056;4.466;2022-07-29T19:48:36;18.20;99.90
19332;DHT22;9800;52.056;4.466;2022-07-29T19:51:37;18.10;99.90
19332;DHT22;9800;52.056;4.466;2022-07-29T19:54:22;17.90;99.90
19332;DHT22;9800;52.056;4.466;2022-07-29T19:57:36;17.90;99.90
19332;DHT22;9800;52.056;4.466;2022-07-29T20:00:49;17.90;99.90
19332;DHT22;9800;52.056;4.466;2022-07-29T20:03:36;17.70;99.90
19332;DHT22;9800;52.056;4.466;2022-07-29T20:06:26;17.60;99.90
19332;DHT22;9800;52.056;4.466;2022-07-29T20:09:30;17.60;99.90
19332;DHT22;9800;52.056;4.466;2022-07-29T20:12:22;17.70;99.90
19332;DHT22;9800;52.056;4.466;2022-07-29T20:18:38;17.60;99.90
19332;DHT22;9800;52.056;4.466;2022-07-29T20:21:48;17.60;99.90
19332;DHT22;9800;52.056;4.466;2022-07-29T20:24:58;17.60;99.90
19332;DHT22;9800;52.056;4.466;2022-07-29T20:30:55;17.40;99.90
19332;DHT22;9800;52.056;4.466;2022-07-29T20:33:56;17.20;99.90
19332;DHT22;9800;52.056;4.466;2022-07-29T20:37:02;17.20;99.90
19332;DHT22;9800;52.056;4.466;2022-07-29T20:40:22;17.20;99.90
19332;DHT22;9800;52.056;4.466;2022-07-29T20:43:11;17.10;99.90
19332;DHT22;9800;52.056;4.466;2022-07-29T20:46:20;17.10;99.90
19332;DHT22;9800;52.056;4.466;2022-07-29T20:49:24;17.20;99.90
19332;DHT22;9800;52.056;4.466;2022-07-29T20:52:43;17.10;99.90
19332;DHT22;9800;52.056;4.466;2022-07-29T20:55:25;16.90;99.90
19332;DHT22;9800;52.056;4.466;2022-07-29T20:58:35;16.90;99.90
19332;DHT22;9800;52.056;4.466;2022-07-29T21:01:47;16.80;99.90
19332;DHT22;9800;52.056;4.466;2022-07-29T21:04:57;16.60;99.90
19332;DHT22;9800;52.056;4.466;2022-07-29T21:10:50;16.50;99.90
19332;DHT22;9800;52.056;4.466;2022-07-29T21:17:24;16.50;99.90
19332;DHT22;9800;52.056;4.466;2022-07-29T21:20:23;16.50;99.90
19332;DHT22;9800;52.056;4.466;2022-07-29T21:23:35;16.40;99.90
19332;DHT22;9800;52.056;4.466;2022-07-29T21:33:45;16.00;99.90
19332;DHT22;9800;52.056;4.466;2022-07-29T21:40:04;15.80;99.90
19332;DHT22;9800;52.056;4.466;2022-07-29T21:43:48;15.90;99.90
19332;DHT22;9800;52.056;4.466;2022-07-29T21:46:26;15.80;99.90
